sensor_id;sensor_type;location;lat;lon;timestamp;pressure;altitude;pressure_sealevel;temperature;humidity
58879;BME280;44660;42.664;23.266;2022-08-25T00:00:44;94364.19;;;19.79;74.40
58879;BME280;44660;42.664;23.266;2022-08-25T00:03:10;94436.16;;;20.29;74.12
58879;BME280;44660;42.664;23.266;2022-08-25T00:05:37;94384.59;;;20.08;74.21
58879;BME280;44660;42.664;23.266;2022-08-25T00:08:03;94392.25;;;20.14;73.62
58879;BME280;44660;42.664;23.266;2022-08-25T00:10:35;94427.59;;;20.49;73.56
58879;BME280;44660;42.664;23.266;2022-08-25T00:13:02;94427.59;;;20.49;73.51
58879;BME280;44660;42.664;23.266;2022-08-25T00:15:28;94430.16;;;20.54;72.83
58879;BME280;44660;42.664;23.266;2022-08-25T00:17:55;94399.72;;;20.40;73.16
58879;BME280;44660;42.664;23.266;2022-08-25T00:20:21;94420.13;;;20.55;72.87
58879;BME280;44660;42.664;23.266;2022-08-25T00:22:47;94406.56;;;20.46;73.25
58879;BME280;44660;42.664;23.266;2022-08-25T00:25:13;94387.69;;;20.23;73.24
58879;BME280;44660;42.664;23.266;2022-08-25T00:27:39;94394.38;;;20.26;73.38
58879;BME280;44660;42.664;23.266;2022-08-25T00:30:05;94396.03;;;20.36;73.51
58879;BME280;44660;42.664;23.266;2022-08-25T00:32:31;94396.03;;;20.36;73.39
58879;BME280;44660;42.664;23.266;2022-08-25T00:34:57;94401.81;;;20.43;72.74
58879;BME280;44660;42.664;23.266;2022-08-25T00:37:22;94409.41;;;20.41;73.27
58879;BME280;44660;42.664;23.266;2022-08-25T00:39:48;94389.84;;;20.35;72.35
58879;BME280;44660;42.664;23.266;2022-08-25T00:42:13;94399.75;;;20.49;72.51
58879;BME280;44660;42.664;23.266;2022-08-25T00:44:39;94395.19;;;20.49;72.60
58879;BME280;44660;42.664;23.266;2022-08-25T00:47:06;94417.50;;;20.64;72.64
58879;BME280;44660;42.664;23.266;2022-08-25T00:49:45;94424.50;;;20.65;72.34
58879;BME280;44660;42.664;23.266;2022-08-25T00:52:23;94429.06;;;20.64;72.74
58879;BME280;44660;42.664;23.266;2022-08-25T00:57:21;94399.25;;;20.38;72.82
58879;BME280;44660;42.664;23.266;2022-08-25T00:59:49;94430.75;;;20.51;72.97
58879;BME280;44660;42.664;23.266;2022-08-25T01:02:14;94426.63;;;20.54;72.77
58879;BME280;44660;42.664;23.266;2022-08-25T01:04:41;94424.31;;;20.61;72.70
58879;BME280;44660;42.664;23.266;2022-08-25T01:07:07;94407.56;;;20.50;72.51
58879;BME280;44660;42.664;23.266;2022-08-25T01:09:33;94406.06;;;20.67;72.87
58879;BME280;44660;42.664;23.266;2022-08-25T01:12:00;94390.97;;;20.66;72.14
58879;BME280;44660;42.664;23.266;2022-08-25T01:14:26;94401.03;;;20.74;72.50
58879;BME280;44660;42.664;23.266;2022-08-25T01:16:53;94375.25;;;20.68;71.86
58879;BME280;44660;42.664;23.266;2022-08-25T01:19:19;94379.63;;;20.78;72.17
58879;BME280;44660;42.664;23.266;2022-08-25T01:21:48;94346.31;;;20.60;71.37
58879;BME280;44660;42.664;23.266;2022-08-25T01:24:34;94372.44;;;20.73;71.40
58879;BME280;44660;42.664;23.266;2022-08-25T01:27:01;94325.41;;;20.43;72.09
58879;BME280;44660;42.664;23.266;2022-08-25T01:29:28;94386.25;;;20.71;72.49
58879;BME280;44660;42.664;23.266;2022-08-25T01:31:57;94345.31;;;20.55;72.60
58879;BME280;44660;42.664;23.266;2022-08-25T01:34:28;94373.66;;;20.67;72.28
58879;BME280;44660;42.664;23.266;2022-08-25T01:36:55;94367.53;;;20.52;72.37
58879;BME280;44660;42.664;23.266;2022-08-25T01:39:21;94388.44;;;20.69;72.49
58879;BME280;44660;42.664;23.266;2022-08-25T01:44:13;94385.47;;;20.71;72.57
58879;BME280;44660;42.664;23.266;2022-08-25T01:46:39;94370.75;;;20.54;72.54
58879;BME280;44660;42.664;23.266;2022-08-25T01:49:04;94387.66;;;20.69;72.54
58879;BME280;44660;42.664;23.266;2022-08-25T01:51:34;94399.13;;;20.75;72.21
58879;BME280;44660;42.664;23.266;2022-08-25T01:54:02;94386.19;;;20.63;72.19
58879;BME280;44660;42.664;23.266;2022-08-25T01:56:27;94377.97;;;20.45;72.88
58879;BME280;44660;42.664;23.266;2022-08-25T01:58:53;94404.59;;;20.61;72.23
58879;BME280;44660;42.664;23.266;2022-08-25T02:01:23;94392.63;;;20.53;72.93
58879;BME280;44660;42.664;23.266;2022-08-25T02:03:50;94379.75;;;20.50;72.71
58879;BME280;44660;42.664;23.266;2022-08-25T02:06:20;94359.72;;;20.42;72.74
58879;BME280;44660;42.664;23.266;2022-08-25T02:08:51;94375.16;;;20.50;72.34
58879;BME280;44660;42.664;23.266;2022-08-25T02:11:16;94379.31;;;20.56;72.37
58879;BME280;44660;42.664;23.266;2022-08-25T02:13:42;94359.09;;;20.45;72.24
58879;BME280;44660;42.664;23.266;2022-08-25T02:16:09;94368.97;;;20.50;72.75
58879;BME280;44660;42.664;23.266;2022-08-25T02:18:39;94349.50;;;20.39;72.65
58879;BME280;44660;42.664;23.266;2022-08-25T02:21:04;94380.00;;;20.62;72.47
58879;BME280;44660;42.664;23.266;2022-08-25T02:23:30;94355.59;;;20.45;72.25
58879;BME280;44660;42.664;23.266;2022-08-25T02:25:55;94386.50;;;20.61;72.15
58879;BME280;44660;42.664;23.266;2022-08-25T02:28:21;94374.88;;;20.61;71.91
58879;BME280;44660;42.664;23.266;2022-08-25T02:30:47;94348.59;;;20.44;71.95
58879;BME280;44660;42.664;23.266;2022-08-25T02:33:12;94372.38;;;20.64;71.99
58879;BME280;44660;42.664;23.266;2022-08-25T02:35:38;94353.53;;;20.50;72.01
58879;BME280;44660;42.664;23.266;2022-08-25T02:38:03;94376.75;;;20.51;72.57
58879;BME280;44660;42.664;23.266;2022-08-25T02:40:29;94363.91;;;20.26;73.39
58879;BME280;44660;42.664;23.266;2022-08-25T02:42:55;94352.78;;;20.27;73.15
58879;BME280;44660;42.664;23.266;2022-08-25T02:45:21;94356.00;;;20.29;72.97
58879;BME280;44660;42.664;23.266;2022-08-25T02:47:47;94368.06;;;20.32;73.81
58879;BME280;44660;42.664;23.266;2022-08-25T02:50:12;94356.59;;;20.26;73.31
58879;BME280;44660;42.664;23.266;2022-08-25T02:52:38;94388.66;;;20.50;73.48
58879;BME280;44660;42.664;23.266;2022-08-25T02:55:07;94366.28;;;20.27;74.08
58879;BME280;44660;42.664;23.266;2022-08-25T02:57:33;94367.84;;;20.19;74.31
58879;BME280;44660;42.664;23.266;2022-08-25T02:59:58;94380.56;;;20.28;74.17
58879;BME280;44660;42.664;23.266;2022-08-25T03:02:25;94365.50;;;20.27;73.80
58879;BME280;44660;42.664;23.266;2022-08-25T03:04:51;94383.50;;;20.40;73.43
58879;BME280;44660;42.664;23.266;2022-08-25T03:07:20;94399.16;;;20.52;73.04
58879;BME280;44660;42.664;23.266;2022-08-25T03:09:46;94402.03;;;20.55;73.12
58879;BME280;44660;42.664;23.266;2022-08-25T03:12:12;94403.94;;;20.55;72.99
58879;BME280;44660;42.664;23.266;2022-08-25T03:14:39;94397.28;;;20.61;73.08
58879;BME280;44660;42.664;23.266;2022-08-25T03:17:07;94330.53;;;20.21;73.39
58879;BME280;44660;42.664;23.266;2022-08-25T03:19:34;94397.63;;;20.60;73.44
58879;BME280;44660;42.664;23.266;2022-08-25T03:22:00;94394.41;;;20.58;72.66
58879;BME280;44660;42.664;23.266;2022-08-25T03:24:26;94395.50;;;20.56;72.50
58879;BME280;44660;42.664;23.266;2022-08-25T03:26:53;94384.72;;;20.56;72.38
58879;BME280;44660;42.664;23.266;2022-08-25T03:29:21;94394.91;;;20.60;72.17
58879;BME280;44660;42.664;23.266;2022-08-25T03:31:47;94389.34;;;20.56;72.29
58879;BME280;44660;42.664;23.266;2022-08-25T03:34:15;94393.69;;;20.66;71.95
58879;BME280;44660;42.664;23.266;2022-08-25T03:36:42;94396.28;;;20.71;72.31
58879;BME280;44660;42.664;23.266;2022-08-25T03:39:08;94384.28;;;20.63;71.82
58879;BME280;44660;42.664;23.266;2022-08-25T03:41:34;94394.03;;;20.73;71.66
58879;BME280;44660;42.664;23.266;2022-08-25T03:44:01;94388.63;;;20.73;71.79
58879;BME280;44660;42.664;23.266;2022-08-25T03:46:31;94367.59;;;20.61;72.04
58879;BME280;44660;42.664;23.266;2022-08-25T03:48:58;94392.63;;;20.76;72.16
58879;BME280;44660;42.664;23.266;2022-08-25T03:51:37;94380.72;;;20.77;72.28
58879;BME280;44660;42.664;23.266;2022-08-25T03:54:06;94362.69;;;20.63;72.06
58879;BME280;44660;42.664;23.266;2022-08-25T03:56:32;94382.50;;;20.81;71.69
58879;BME280;44660;42.664;23.266;2022-08-25T03:58:58;94389.50;;;20.82;71.90
58879;BME280;44660;42.664;23.266;2022-08-25T04:01:24;94390.91;;;20.80;71.82
58879;BME280;44660;42.664;23.266;2022-08-25T04:03:50;94386.16;;;20.85;71.70
58879;BME280;44660;42.664;23.266;2022-08-25T04:06:17;94384.41;;;20.90;71.37
58879;BME280;44660;42.664;23.266;2022-08-25T04:08:42;94379.63;;;20.78;72.34
58879;BME280;44660;42.664;23.266;2022-08-25T04:11:20;94379.13;;;20.76;72.54
58879;BME280;44660;42.664;23.266;2022-08-25T04:13:46;94395.00;;;20.77;72.51
58879;BME280;44660;42.664;23.266;2022-08-25T04:16:20;94390.59;;;20.81;72.30
58879;BME280;44660;42.664;23.266;2022-08-25T04:18:47;94374.72;;;20.57;73.21
58879;BME280;44660;42.664;23.266;2022-08-25T04:21:14;94380.97;;;20.66;73.40
58879;BME280;44660;42.664;23.266;2022-08-25T04:23:42;94378.25;;;20.66;73.52
58879;BME280;44660;42.664;23.266;2022-08-25T04:26:16;94358.22;;;20.59;73.23
58879;BME280;44660;42.664;23.266;2022-08-25T04:28:44;94386.78;;;20.82;72.70
58879;BME280;44660;42.664;23.266;2022-08-25T04:31:12;94379.16;;;20.84;72.80
58879;BME280;44660;42.664;23.266;2022-08-25T04:33:39;94358.00;;;20.78;72.56
58879;BME280;44660;42.664;23.266;2022-08-25T04:36:07;94370.91;;;20.90;72.51
58879;BME280;44660;42.664;23.266;2022-08-25T04:38:33;94368.00;;;20.77;72.96
58879;BME280;44660;42.664;23.266;2022-08-25T04:41:01;94359.19;;;20.63;73.19
58879;BME280;44660;42.664;23.266;2022-08-25T04:43:27;94372.53;;;20.68;73.57
58879;BME280;44660;42.664;23.266;2022-08-25T04:45:53;94376.84;;;20.69;73.67
58879;BME280;44660;42.664;23.266;2022-08-25T04:48:20;94367.34;;;20.71;73.52
58879;BME280;44660;42.664;23.266;2022-08-25T04:50:46;94389.69;;;20.95;73.10
58879;BME280;44660;42.664;23.266;2022-08-25T04:53:11;94347.41;;;20.59;73.47
58879;BME280;44660;42.664;23.266;2022-08-25T04:55:44;94391.22;;;20.78;73.89
58879;BME280;44660;42.664;23.266;2022-08-25T04:58:11;94381.03;;;20.75;74.16
58879;BME280;44660;42.664;23.266;2022-08-25T05:00:37;94388.06;;;20.85;73.64
58879;BME280;44660;42.664;23.266;2022-08-25T05:03:04;94394.59;;;20.84;73.86
58879;BME280;44660;42.664;23.266;2022-08-25T05:05:31;94365.63;;;20.76;73.58
58879;BME280;44660;42.664;23.266;2022-08-25T05:07:57;94380.16;;;20.97;72.64
58879;BME280;44660;42.664;23.266;2022-08-25T05:10:23;94381.75;;;20.98;72.11
58879;BME280;44660;42.664;23.266;2022-08-25T05:12:49;94377.63;;;21.01;71.65
58879;BME280;44660;42.664;23.266;2022-08-25T05:15:15;94376.09;;;21.17;71.21
58879;BME280;44660;42.664;23.266;2022-08-25T05:18:03;94360.50;;;21.14;70.92
58879;BME280;44660;42.664;23.266;2022-08-25T05:20:29;94375.97;;;21.31;70.87
58879;BME280;44660;42.664;23.266;2022-08-25T05:22:56;94381.56;;;21.35;69.65
58879;BME280;44660;42.664;23.266;2022-08-25T05:25:22;94371.66;;;21.21;69.01
58879;BME280;44660;42.664;23.266;2022-08-25T05:27:48;94323.59;;;21.01;69.14
58879;BME280;44660;42.664;23.266;2022-08-25T05:30:14;94344.34;;;21.32;68.97
58879;BME280;44660;42.664;23.266;2022-08-25T05:32:40;94348.47;;;21.38;68.14
58879;BME280;44660;42.664;23.266;2022-08-25T05:35:06;94362.00;;;21.47;68.07
58879;BME280;44660;42.664;23.266;2022-08-25T05:37:32;94356.13;;;21.53;68.02
58879;BME280;44660;42.664;23.266;2022-08-25T05:39:58;94380.03;;;21.69;67.53
58879;BME280;44660;42.664;23.266;2022-08-25T05:42:23;94366.69;;;21.81;66.98
58879;BME280;44660;42.664;23.266;2022-08-25T05:44:49;94311.94;;;21.58;66.81
58879;BME280;44660;42.664;23.266;2022-08-25T05:47:15;94349.47;;;21.95;67.14
58879;BME280;44660;42.664;23.266;2022-08-25T05:49:40;94389.91;;;22.17;66.63
58879;BME280;44660;42.664;23.266;2022-08-25T05:52:06;94389.25;;;22.21;67.23
58879;BME280;44660;42.664;23.266;2022-08-25T05:54:32;94355.50;;;22.09;66.44
58879;BME280;44660;42.664;23.266;2022-08-25T05:56:57;94359.81;;;22.01;65.56
58879;BME280;44660;42.664;23.266;2022-08-25T05:59:23;94367.31;;;22.22;65.31
58879;BME280;44660;42.664;23.266;2022-08-25T06:01:49;94367.94;;;22.19;64.23
58879;BME280;44660;42.664;23.266;2022-08-25T06:04:33;94370.78;;;22.40;64.46
58879;BME280;44660;42.664;23.266;2022-08-25T06:06:58;94380.31;;;22.64;63.65
58879;BME280;44660;42.664;23.266;2022-08-25T06:09:24;94344.03;;;22.47;63.40
58879;BME280;44660;42.664;23.266;2022-08-25T06:11:50;94372.00;;;22.69;62.79
58879;BME280;44660;42.664;23.266;2022-08-25T06:14:16;94375.63;;;22.82;62.93
58879;BME280;44660;42.664;23.266;2022-08-25T06:16:42;94373.50;;;22.88;62.81
58879;BME280;44660;42.664;23.266;2022-08-25T06:19:08;94386.88;;;22.93;62.61
58879;BME280;44660;42.664;23.266;2022-08-25T06:21:35;94386.44;;;22.91;62.59
58879;BME280;44660;42.664;23.266;2022-08-25T06:24:03;94359.69;;;22.80;62.14
58879;BME280;44660;42.664;23.266;2022-08-25T06:26:29;94383.19;;;23.06;62.26
58879;BME280;44660;42.664;23.266;2022-08-25T06:28:54;94367.25;;;23.05;62.09
58879;BME280;44660;42.664;23.266;2022-08-25T06:31:20;94371.47;;;23.23;61.17
58879;BME280;44660;42.664;23.266;2022-08-25T06:33:46;94368.13;;;23.47;60.90
58879;BME280;44660;42.664;23.266;2022-08-25T06:36:12;94380.06;;;23.76;59.41
58879;BME280;44660;42.664;23.266;2022-08-25T06:38:38;94374.25;;;24.29;57.88
58879;BME280;44660;42.664;23.266;2022-08-25T06:41:05;94361.66;;;24.58;57.20
58879;BME280;44660;42.664;23.266;2022-08-25T06:43:32;94350.44;;;25.05;56.67
58879;BME280;44660;42.664;23.266;2022-08-25T06:46:10;94372.84;;;25.77;54.31
58879;BME280;44660;42.664;23.266;2022-08-25T06:48:36;94366.47;;;25.72;53.54
58879;BME280;44660;42.664;23.266;2022-08-25T06:51:10;94358.56;;;25.18;54.63
58879;BME280;44660;42.664;23.266;2022-08-25T06:53:35;94379.47;;;25.38;55.37
58879;BME280;44660;42.664;23.266;2022-08-25T06:56:01;94376.75;;;25.38;54.82
58879;BME280;44660;42.664;23.266;2022-08-25T06:58:26;94381.03;;;25.27;55.29
58879;BME280;44660;42.664;23.266;2022-08-25T07:00:52;94369.44;;;25.30;55.43
58879;BME280;44660;42.664;23.266;2022-08-25T07:03:18;94370.59;;;25.66;54.11
58879;BME280;44660;42.664;23.266;2022-08-25T07:05:53;94368.75;;;25.83;53.59
58879;BME280;44660;42.664;23.266;2022-08-25T07:08:21;94363.34;;;25.99;52.12
58879;BME280;44660;42.664;23.266;2022-08-25T07:10:46;94372.00;;;26.29;51.48
58879;BME280;44660;42.664;23.266;2022-08-25T07:13:12;94358.28;;;26.54;50.40
58879;BME280;44660;42.664;23.266;2022-08-25T07:15:39;94358.28;;;26.70;50.19
58879;BME280;44660;42.664;23.266;2022-08-25T07:18:05;94308.50;;;26.57;50.35
58879;BME280;44660;42.664;23.266;2022-08-25T07:20:30;94312.66;;;27.66;48.02
58879;BME280;44660;42.664;23.266;2022-08-25T07:22:56;94357.19;;;29.88;43.82
58879;BME280;44660;42.664;23.266;2022-08-25T07:25:22;94367.84;;;30.58;41.63
58879;BME280;44660;42.664;23.266;2022-08-25T07:27:48;94343.75;;;31.79;38.72
58879;BME280;44660;42.664;23.266;2022-08-25T07:30:15;94340.97;;;32.67;37.64
58879;BME280;44660;42.664;23.266;2022-08-25T07:32:41;94346.97;;;33.01;36.68
58879;BME280;44660;42.664;23.266;2022-08-25T07:35:06;94359.16;;;33.54;35.26
58879;BME280;44660;42.664;23.266;2022-08-25T07:37:48;94281.19;;;33.72;34.10
58879;BME280;44660;42.664;23.266;2022-08-25T07:40:20;94344.44;;;34.19;33.66
58879;BME280;44660;42.664;23.266;2022-08-25T07:42:51;94341.00;;;33.82;33.66
58879;BME280;44660;42.664;23.266;2022-08-25T07:45:19;94352.88;;;33.40;35.32
58879;BME280;44660;42.664;23.266;2022-08-25T07:47:45;94335.53;;;32.96;35.77
58879;BME280;44660;42.664;23.266;2022-08-25T07:50:12;94363.75;;;32.64;36.48
58879;BME280;44660;42.664;23.266;2022-08-25T07:52:40;94345.47;;;32.12;37.27
58879;BME280;44660;42.664;23.266;2022-08-25T07:55:06;94355.63;;;31.94;37.56
58879;BME280;44660;42.664;23.266;2022-08-25T07:57:32;94356.94;;;31.55;38.62
58879;BME280;44660;42.664;23.266;2022-08-25T07:59:58;94324.25;;;30.90;39.60
58879;BME280;44660;42.664;23.266;2022-08-25T08:02:24;94346.50;;;30.82;40.18
58879;BME280;44660;42.664;23.266;2022-08-25T08:04:51;94347.53;;;30.66;40.45
58879;BME280;44660;42.664;23.266;2022-08-25T08:07:19;94318.50;;;30.61;41.13
58879;BME280;44660;42.664;23.266;2022-08-25T08:09:46;94334.94;;;31.03;40.34
58879;BME280;44660;42.664;23.266;2022-08-25T08:12:11;94332.44;;;31.32;39.26
58879;BME280;44660;42.664;23.266;2022-08-25T08:14:36;94339.63;;;31.47;39.13
58879;BME280;44660;42.664;23.266;2022-08-25T08:17:07;94347.00;;;31.99;37.84
58879;BME280;44660;42.664;23.266;2022-08-25T08:19:33;94336.00;;;31.99;37.61
58879;BME280;44660;42.664;23.266;2022-08-25T08:21:59;94347.84;;;32.10;36.97
58879;BME280;44660;42.664;23.266;2022-08-25T08:24:24;94325.88;;;32.17;36.95
58879;BME280;44660;42.664;23.266;2022-08-25T08:26:50;94327.94;;;32.42;36.85
58879;BME280;44660;42.664;23.266;2022-08-25T08:29:15;94308.31;;;32.47;36.49
58879;BME280;44660;42.664;23.266;2022-08-25T08:31:41;94309.91;;;32.55;37.08
58879;BME280;44660;42.664;23.266;2022-08-25T08:34:06;94304.03;;;32.68;36.87
58879;BME280;44660;42.664;23.266;2022-08-25T08:36:32;94328.81;;;32.82;36.25
58879;BME280;44660;42.664;23.266;2022-08-25T08:38:57;94328.78;;;32.68;36.71
58879;BME280;44660;42.664;23.266;2022-08-25T08:44:42;94327.69;;;31.25;38.64
58879;BME280;44660;42.664;23.266;2022-08-25T08:55:52;94328.22;;;30.97;39.49
58879;BME280;44660;42.664;23.266;2022-08-25T08:58:30;94297.34;;;31.07;39.23
58879;BME280;44660;42.664;23.266;2022-08-25T09:00:58;94274.22;;;30.59;39.67
58879;BME280;44660;42.664;23.266;2022-08-25T09:03:38;94304.56;;;30.40;40.27
58879;BME280;44660;42.664;23.266;2022-08-25T09:06:08;94331.97;;;30.40;39.38
58879;BME280;44660;42.664;23.266;2022-08-25T09:08:36;94296.34;;;30.40;39.75
58879;BME280;44660;42.664;23.266;2022-08-25T09:11:11;94301.81;;;30.43;39.00
58879;BME280;44660;42.664;23.266;2022-08-25T09:13:44;94326.22;;;30.52;39.04
58879;BME280;44660;42.664;23.266;2022-08-25T09:19:43;94320.50;;;30.30;40.20
58879;BME280;44660;42.664;23.266;2022-08-25T09:29:57;94322.81;;;29.64;39.93
58879;BME280;44660;42.664;23.266;2022-08-25T09:32:27;94315.38;;;29.64;39.88
58879;BME280;44660;42.664;23.266;2022-08-25T09:34:53;94288.94;;;29.49;39.34
58879;BME280;44660;42.664;23.266;2022-08-25T09:37:20;94302.38;;;29.58;39.24
58879;BME280;44660;42.664;23.266;2022-08-25T09:39:46;94287.84;;;29.27;39.23
58879;BME280;44660;42.664;23.266;2022-08-25T09:42:12;94301.53;;;29.54;39.20
58879;BME280;44660;42.664;23.266;2022-08-25T09:44:43;94305.88;;;29.55;40.23
58879;BME280;44660;42.664;23.266;2022-08-25T09:47:22;94306.13;;;29.46;40.09
58879;BME280;44660;42.664;23.266;2022-08-25T09:55:22;94314.22;;;29.39;39.56
58879;BME280;44660;42.664;23.266;2022-08-25T09:57:46;94308.53;;;29.24;39.20
58879;BME280;44660;42.664;23.266;2022-08-25T10:00:24;94305.16;;;29.08;39.14
58879;BME280;44660;42.664;23.266;2022-08-25T10:03:13;94309.03;;;28.83;40.03
58879;BME280;44660;42.664;23.266;2022-08-25T10:06:08;94309.59;;;28.70;40.24
58879;BME280;44660;42.664;23.266;2022-08-25T10:11:07;94295.09;;;28.46;40.55
58879;BME280;44660;42.664;23.266;2022-08-25T10:16:22;94304.06;;;28.23;40.13
58879;BME280;44660;42.664;23.266;2022-08-25T10:21:32;94291.97;;;28.05;40.89
58879;BME280;44660;42.664;23.266;2022-08-25T10:23:58;94294.72;;;28.24;40.11
58879;BME280;44660;42.664;23.266;2022-08-25T10:26:51;94302.72;;;28.37;40.49
58879;BME280;44660;42.664;23.266;2022-08-25T10:35:22;94293.19;;;28.70;38.60
58879;BME280;44660;42.664;23.266;2022-08-25T10:40:45;94279.56;;;28.96;37.68
58879;BME280;44660;42.664;23.266;2022-08-25T10:46:25;94245.22;;;28.99;37.31
58879;BME280;44660;42.664;23.266;2022-08-25T10:49:02;94276.56;;;29.59;36.66
58879;BME280;44660;42.664;23.266;2022-08-25T10:52:14;94267.47;;;29.81;36.21
58879;BME280;44660;42.664;23.266;2022-08-25T11:05:03;94270.34;;;30.26;34.53
58879;BME280;44660;42.664;23.266;2022-08-25T11:07:43;94275.00;;;30.22;34.40
58879;BME280;44660;42.664;23.266;2022-08-25T11:10:14;94262.50;;;30.25;35.39
58879;BME280;44660;42.664;23.266;2022-08-25T11:12:49;94244.00;;;30.18;34.94
58879;BME280;44660;42.664;23.266;2022-08-25T11:15:20;94252.25;;;30.22;34.88
58879;BME280;44660;42.664;23.266;2022-08-25T11:18:06;94257.78;;;30.25;35.63
58879;BME280;44660;42.664;23.266;2022-08-25T11:21:28;94242.50;;;30.24;35.04
58879;BME280;44660;42.664;23.266;2022-08-25T11:23:39;94241.34;;;30.25;35.20
58879;BME280;44660;42.664;23.266;2022-08-25T11:26:11;94243.75;;;30.30;35.33
58879;BME280;44660;42.664;23.266;2022-08-25T11:28:53;94235.78;;;30.18;35.98
58879;BME280;44660;42.664;23.266;2022-08-25T11:31:22;94235.19;;;30.36;35.35
58879;BME280;44660;42.664;23.266;2022-08-25T11:33:49;94224.97;;;30.33;35.54
58879;BME280;44660;42.664;23.266;2022-08-25T11:36:27;94232.09;;;30.41;35.25
58879;BME280;44660;42.664;23.266;2022-08-25T11:44:05;94223.50;;;30.46;35.01
58879;BME280;44660;42.664;23.266;2022-08-25T11:51:53;94220.31;;;30.37;35.58
58879;BME280;44660;42.664;23.266;2022-08-25T11:54:29;94217.22;;;30.42;34.96
58879;BME280;44660;42.664;23.266;2022-08-25T11:57:01;94212.22;;;30.10;34.69
58879;BME280;44660;42.664;23.266;2022-08-25T12:00:34;94208.97;;;30.38;34.85
58879;BME280;44660;42.664;23.266;2022-08-25T12:02:48;94208.78;;;30.20;35.10
58879;BME280;44660;42.664;23.266;2022-08-25T12:10:59;94196.13;;;30.05;35.63
58879;BME280;44660;42.664;23.266;2022-08-25T12:13:49;94212.69;;;30.19;35.40
58879;BME280;44660;42.664;23.266;2022-08-25T12:30:24;94200.63;;;30.24;34.81
58879;BME280;44660;42.664;23.266;2022-08-25T12:35:59;94210.97;;;30.04;35.29
58879;BME280;44660;42.664;23.266;2022-08-25T12:38:30;94213.69;;;30.00;35.61
58879;BME280;44660;42.664;23.266;2022-08-25T12:41:14;94202.66;;;29.93;36.23
58879;BME280;44660;42.664;23.266;2022-08-25T12:43:45;94212.69;;;29.85;36.14
58879;BME280;44660;42.664;23.266;2022-08-25T12:46:37;94208.88;;;29.59;35.87
58879;BME280;44660;42.664;23.266;2022-08-25T12:57:18;94189.47;;;29.38;35.20
58879;BME280;44660;42.664;23.266;2022-08-25T12:59:49;94185.16;;;29.37;35.60
58879;BME280;44660;42.664;23.266;2022-08-25T13:10:54;94216.22;;;28.94;35.51
58879;BME280;44660;42.664;23.266;2022-08-25T13:16:14;94204.59;;;29.01;36.09
58879;BME280;44660;42.664;23.266;2022-08-25T13:18:41;94200.69;;;29.02;36.43
58879;BME280;44660;42.664;23.266;2022-08-25T13:24:01;94214.13;;;28.84;36.10
58879;BME280;44660;42.664;23.266;2022-08-25T13:26:36;94194.28;;;28.41;37.11
58879;BME280;44660;42.664;23.266;2022-08-25T13:29:13;94210.00;;;28.47;36.65
58879;BME280;44660;42.664;23.266;2022-08-25T13:32:10;94205.13;;;28.60;36.36
58879;BME280;44660;42.664;23.266;2022-08-25T13:34:39;94201.78;;;28.71;36.57
58879;BME280;44660;42.664;23.266;2022-08-25T13:37:07;94202.22;;;28.73;36.71
58879;BME280;44660;42.664;23.266;2022-08-25T13:40:07;94210.94;;;28.82;36.67
58879;BME280;44660;42.664;23.266;2022-08-25T13:42:33;94205.97;;;28.88;36.56
58879;BME280;44660;42.664;23.266;2022-08-25T13:45:01;94200.38;;;28.80;36.89
58879;BME280;44660;42.664;23.266;2022-08-25T13:47:36;94198.97;;;28.90;36.64
58879;BME280;44660;42.664;23.266;2022-08-25T13:53:10;94198.97;;;28.90;36.78
58879;BME280;44660;42.664;23.266;2022-08-25T13:55:57;94197.22;;;28.78;36.41
58879;BME280;44660;42.664;23.266;2022-08-25T13:58:34;94200.84;;;28.86;36.25
58879;BME280;44660;42.664;23.266;2022-08-25T14:01:21;94198.59;;;28.42;36.51
58879;BME280;44660;42.664;23.266;2022-08-25T14:03:47;94200.94;;;28.43;37.15
58879;BME280;44660;42.664;23.266;2022-08-25T14:08:44;94150.31;;;28.03;36.75
58879;BME280;44660;42.664;23.266;2022-08-25T14:13:42;94200.59;;;28.22;37.09
58879;BME280;44660;42.664;23.266;2022-08-25T14:18:47;94197.06;;;28.21;36.54
58879;BME280;44660;42.664;23.266;2022-08-25T14:21:14;94171.69;;;28.01;36.80
58879;BME280;44660;42.664;23.266;2022-08-25T14:23:39;94194.16;;;28.33;37.06
58879;BME280;44660;42.664;23.266;2022-08-25T14:26:05;94200.88;;;28.40;36.20
58879;BME280;44660;42.664;23.266;2022-08-25T14:28:33;94190.50;;;28.49;36.78
58879;BME280;44660;42.664;23.266;2022-08-25T14:31:04;94199.59;;;28.33;36.81
58879;BME280;44660;42.664;23.266;2022-08-25T14:33:42;94197.19;;;28.28;36.97
58879;BME280;44660;42.664;23.266;2022-08-25T14:36:09;94199.38;;;28.19;36.65
58879;BME280;44660;42.664;23.266;2022-08-25T14:38:35;94190.47;;;28.02;37.41
58879;BME280;44660;42.664;23.266;2022-08-25T14:41:03;94177.66;;;27.83;37.27
58879;BME280;44660;42.664;23.266;2022-08-25T14:43:29;94204.56;;;28.05;36.75
58879;BME280;44660;42.664;23.266;2022-08-25T14:45:54;94198.91;;;27.94;37.12
58879;BME280;44660;42.664;23.266;2022-08-25T14:48:26;94201.31;;;27.99;37.05
58879;BME280;44660;42.664;23.266;2022-08-25T14:50:53;94191.91;;;27.96;37.16
58879;BME280;44660;42.664;23.266;2022-08-25T14:53:20;94200.88;;;27.97;37.50
58879;BME280;44660;42.664;23.266;2022-08-25T14:55:45;94196.03;;;28.06;37.40
58879;BME280;44660;42.664;23.266;2022-08-25T14:58:11;94173.31;;;27.82;37.11
58879;BME280;44660;42.664;23.266;2022-08-25T15:00:43;94188.97;;;27.85;37.71
58879;BME280;44660;42.664;23.266;2022-08-25T15:03:12;94160.56;;;27.67;37.34
58879;BME280;44660;42.664;23.266;2022-08-25T15:05:39;94190.63;;;27.70;37.51
58879;BME280;44660;42.664;23.266;2022-08-25T15:08:06;94192.66;;;27.54;37.54
58879;BME280;44660;42.664;23.266;2022-08-25T15:10:50;94191.22;;;27.60;38.11